sensor_id;sensor_type;location;lat;lon;timestamp;temperature;humidity
14349;DHT22;7258;50.376;8.742;2024-03-23T00:54:12;7.30;99.90
14349;DHT22;7258;50.376;8.742;2024-03-23T00:56:13;7.30;99.90
14349;DHT22;7258;50.376;8.742;2024-03-23T00:58:14;7.20;99.90
14349;DHT22;7258;50.376;8.742;2024-03-23T01:00:17;7.30;99.90
14349;DHT22;7258;50.376;8.742;2024-03-23T01:02:18;7.30;99.90
14349;DHT22;7258;50.376;8.742;2024-03-23T01:04:20;7.30;99.90
14349;DHT22;7258;50.376;8.742;2024-03-23T01:06:21;7.30;99.90
14349;DHT22;7258;50.376;8.742;2024-03-23T01:08:23;7.30;99.90
14349;DHT22;7258;50.376;8.742;2024-03-23T01:10:26;7.30;99.90
14349;DHT22;7258;50.376;8.742;2024-03-23T01:12:28;7.30;99.90
14349;DHT22;7258;50.376;8.742;2024-03-23T01:14:29;7.30;99.90
14349;DHT22;7258;50.376;8.742;2024-03-23T01:16:31;7.30;99.90
14349;DHT22;7258;50.376;8.742;2024-03-23T01:18:32;7.30;99.90
14349;DHT22;7258;50.376;8.742;2024-03-23T01:20:34;7.30;99.90
14349;DHT22;7258;50.376;8.742;2024-03-23T01:22:35;7.30;99.90
14349;DHT22;7258;50.376;8.742;2024-03-23T01:24:37;7.30;99.90
14349;DHT22;7258;50.376;8.742;2024-03-23T01:26:39;7.30;99.90
14349;DHT22;7258;50.376;8.742;2024-03-23T01:28:41;7.30;99.90
14349;DHT22;7258;50.376;8.742;2024-03-23T01:30:42;7.30;99.90
14349;DHT22;7258;50.376;8.742;2024-03-23T01:32:44;7.30;99.90
14349;DHT22;7258;50.376;8.742;2024-03-23T01:34:45;7.20;99.90
14349;DHT22;7258;50.376;8.742;2024-03-23T01:36:47;7.20;99.90
14349;DHT22;7258;50.376;8.742;2024-03-23T01:38:48;7.20;99.90
14349;DHT22;7258;50.376;8.742;2024-03-23T01:40:56;7.20;99.90
14349;DHT22;7258;50.376;8.742;2024-03-23T01:43:03;7.10;99.90
14349;DHT22;7258;50.376;8.742;2024-03-23T01:45:08;7.10;99.90
14349;DHT22;7258;50.376;8.742;2024-03-23T01:47:09;7.00;99.90
14349;DHT22;7258;50.376;8.742;2024-03-23T01:49:11;6.90;99.90
14349;DHT22;7258;50.376;8.742;2024-03-23T01:51:13;6.80;99.90
14349;DHT22;7258;50.376;8.742;2024-03-23T01:53:16;6.80;99.90
14349;DHT22;7258;50.376;8.742;2024-03-23T01:55:18;6.80;99.90
14349;DHT22;7258;50.376;8.742;2024-03-23T01:57:20;6.70;99.90
14349;DHT22;7258;50.376;8.742;2024-03-23T01:59:23;6.70;99.90
14349;DHT22;7258;50.376;8.742;2024-03-23T02:01:25;6.70;99.90
14349;DHT22;7258;50.376;8.742;2024-03-23T02:03:27;6.70;99.90
14349;DHT22;7258;50.376;8.742;2024-03-23T02:05:28;6.80;99.90
14349;DHT22;7258;50.376;8.742;2024-03-23T02:07:31;6.80;99.90
14349;DHT22;7258;50.376;8.742;2024-03-23T02:09:32;6.90;99.90
14349;DHT22;7258;50.376;8.742;2024-03-23T02:11:34;7.00;99.90
14349;DHT22;7258;50.376;8.742;2024-03-23T02:13:35;7.00;99.90
14349;DHT22;7258;50.376;8.742;2024-03-23T02:15:40;7.00;99.90
14349;DHT22;7258;50.376;8.742;2024-03-23T02:17:41;7.10;99.90
14349;DHT22;7258;50.376;8.742;2024-03-23T02:19:43;7.10;99.90
14349;DHT22;7258;50.376;8.742;2024-03-23T02:21:44;7.20;99.90
14349;DHT22;7258;50.376;8.742;2024-03-23T02:23:49;7.20;99.90
14349;DHT22;7258;50.376;8.742;2024-03-23T02:25:50;7.20;99.90
14349;DHT22;7258;50.376;8.742;2024-03-23T02:27:52;7.30;99.90
14349;DHT22;7258;50.376;8.742;2024-03-23T02:29:54;7.30;99.90
14349;DHT22;7258;50.376;8.742;2024-03-23T02:31:56;7.30;99.90
14349;DHT22;7258;50.376;8.742;2024-03-23T02:33:59;7.30;99.90
14349;DHT22;7258;50.376;8.742;2024-03-23T02:36:01;7.40;99.90
14349;DHT22;7258;50.376;8.742;2024-03-23T02:38:02;7.40;99.90
14349;DHT22;7258;50.376;8.742;2024-03-23T02:40:07;7.40;99.90
14349;DHT22;7258;50.376;8.742;2024-03-23T02:42:08;7.50;99.90
14349;DHT22;7258;50.376;8.742;2024-03-23T02:44:10;7.50;99.90
14349;DHT22;7258;50.376;8.742;2024-03-23T02:46:12;7.50;99.90
14349;DHT22;7258;50.376;8.742;2024-03-23T02:48:14;7.60;99.90
14349;DHT22;7258;50.376;8.742;2024-03-23T02:50:15;7.60;99.90
14349;DHT22;7258;50.376;8.742;2024-03-23T02:52:17;7.70;99.90
14349;DHT22;7258;50.376;8.742;2024-03-23T02:54:18;7.70;99.90
14349;DHT22;7258;50.376;8.742;2024-03-23T02:56:21;7.70;99.90
14349;DHT22;7258;50.376;8.742;2024-03-23T02:58:22;7.80;99.90
14349;DHT22;7258;50.376;8.742;2024-03-23T03:00:25;7.80;99.90
14349;DHT22;7258;50.376;8.742;2024-03-23T03:02:26;7.80;99.90
14349;DHT22;7258;50.376;8.742;2024-03-23T03:04:28;7.80;99.90
14349;DHT22;7258;50.376;8.742;2024-03-23T03:06:30;7.80;99.90
14349;DHT22;7258;50.376;8.742;2024-03-23T03:08:32;7.80;99.90
14349;DHT22;7258;50.376;8.742;2024-03-23T03:10:33;7.80;99.90
14349;DHT22;7258;50.376;8.742;2024-03-23T03:12:38;7.80;99.90
14349;DHT22;7258;50.376;8.742;2024-03-23T03:14:39;7.80;99.90
14349;DHT22;7258;50.376;8.742;2024-03-23T03:16:41;7.80;99.90
14349;DHT22;7258;50.376;8.742;2024-03-23T03:18:42;7.80;99.90
14349;DHT22;7258;50.376;8.742;2024-03-23T03:20:44;7.80;99.90
14349;DHT22;7258;50.376;8.742;2024-03-23T03:22:45;7.80;99.90
14349;DHT22;7258;50.376;8.742;2024-03-23T03:24:47;7.90;99.90
14349;DHT22;7258;50.376;8.742;2024-03-23T03:26:48;7.90;99.90
14349;DHT22;7258;50.376;8.742;2024-03-23T03:28:52;7.90;99.90
14349;DHT22;7258;50.376;8.742;2024-03-23T03:30:53;7.90;99.90
14349;DHT22;7258;50.376;8.742;2024-03-23T03:32:55;7.90;99.90
14349;DHT22;7258;50.376;8.742;2024-03-23T03:34:56;7.90;99.90
14349;DHT22;7258;50.376;8.742;2024-03-23T03:36:58;7.90;99.90
14349;DHT22;7258;50.376;8.742;2024-03-23T03:39:00;7.90;99.90
14349;DHT22;7258;50.376;8.742;2024-03-23T03:41:04;7.90;99.90
14349;DHT22;7258;50.376;8.742;2024-03-23T03:43:05;7.90;99.90
14349;DHT22;7258;50.376;8.742;2024-03-23T03:45:08;7.90;99.90
14349;DHT22;7258;50.376;8.742;2024-03-23T03:47:09;7.90;99.90
14349;DHT22;7258;50.376;8.742;2024-03-23T03:49:11;7.90;99.90
14349;DHT22;7258;50.376;8.742;2024-03-23T03:51:12;7.90;99.90
14349;DHT22;7258;50.376;8.742;2024-03-23T03:53:14;7.90;99.90
14349;DHT22;7258;50.376;8.742;2024-03-23T03:55:16;7.90;99.90
14349;DHT22;7258;50.376;8.742;2024-03-23T03:57:18;7.90;99.90
14349;DHT22;7258;50.376;8.742;2024-03-23T03:59:19;7.90;99.90
14349;DHT22;7258;50.376;8.742;2024-03-23T04:01:23;7.90;99.90
14349;DHT22;7258;50.376;8.742;2024-03-23T04:03:24;8.00;99.90
14349;DHT22;7258;50.376;8.742;2024-03-23T04:05:26;8.00;99.90
14349;DHT22;7258;50.376;8.742;2024-03-23T04:07:27;8.00;99.90
14349;DHT22;7258;50.376;8.742;2024-03-23T04:09:29;8.00;99.90
14349;DHT22;7258;50.376;8.742;2024-03-23T04:11:31;8.10;99.90
14349;DHT22;7258;50.376;8.742;2024-03-23T04:13:32;8.20;99.90
14349;DHT22;7258;50.376;8.742;2024-03-23T04:15:34;8.20;99.90
14349;DHT22;7258;50.376;8.742;2024-03-23T04:17:38;8.20;99.90
14349;DHT22;7258;50.376;8.742;2024-03-23T04:19:39;8.20;99.90
14349;DHT22;7258;50.376;8.742;2024-03-23T04:21:41;8.20;99.90
14349;DHT22;7258;50.376;8.742;2024-03-23T04:23:42;8.10;99.90
14349;DHT22;7258;50.376;8.742;2024-03-23T04:25:44;8.10;99.90
14349;DHT22;7258;50.376;8.742;2024-03-23T04:27:45;8.00;99.90
14349;DHT22;7258;50.376;8.742;2024-03-23T04:29:47;8.00;99.90
14349;DHT22;7258;50.376;8.742;2024-03-23T04:31:49;7.90;99.90
14349;DHT22;7258;50.376;8.742;2024-03-23T04:33:52;7.80;99.90
14349;DHT22;7258;50.376;8.742;2024-03-23T04:35:53;7.70;99.90
14349;DHT22;7258;50.376;8.742;2024-03-23T04:37:55;7.60;99.90
14349;DHT22;7258;50.376;8.742;2024-03-23T04:39:59;7.50;99.90
14349;DHT22;7258;50.376;8.742;2024-03-23T04:42:01;7.40;99.90
14349;DHT22;7258;50.376;8.742;2024-03-23T04:44:03;7.30;99.90
14349;DHT22;7258;50.376;8.742;2024-03-23T04:46:05;7.30;99.90
14349;DHT22;7258;50.376;8.742;2024-03-23T04:48:07;7.30;99.90
14349;DHT22;7258;50.376;8.742;2024-03-23T04:50:10;7.20;99.90
14349;DHT22;7258;50.376;8.742;2024-03-23T04:52:12;7.10;99.90
14349;DHT22;7258;50.376;8.742;2024-03-23T04:54:13;7.00;99.90
14349;DHT22;7258;50.376;8.742;2024-03-23T04:56:15;7.00;99.90
14349;DHT22;7258;50.376;8.742;2024-03-23T04:58:16;6.80;99.90
14349;DHT22;7258;50.376;8.742;2024-03-23T05:00:18;6.70;99.90
14349;DHT22;7258;50.376;8.742;2024-03-23T05:02:19;6.60;99.90
14349;DHT22;7258;50.376;8.742;2024-03-23T05:04:21;6.60;99.90
14349;DHT22;7258;50.376;8.742;2024-03-23T05:06:24;6.50;99.90
14349;DHT22;7258;50.376;8.742;2024-03-23T05:08:26;6.40;99.90
14349;DHT22;7258;50.376;8.742;2024-03-23T05:10:27;6.30;99.90
14349;DHT22;7258;50.376;8.742;2024-03-23T05:12:29;6.30;99.90
14349;DHT22;7258;50.376;8.742;2024-03-23T05:14:30;6.30;99.90
14349;DHT22;7258;50.376;8.742;2024-03-23T05:16:32;6.30;99.90
14349;DHT22;7258;50.376;8.742;2024-03-23T05:18:33;6.30;99.90
14349;DHT22;7258;50.376;8.742;2024-03-23T05:20:35;6.30;99.90
14349;DHT22;7258;50.376;8.742;2024-03-23T05:22:39;6.30;99.90
14349;DHT22;7258;50.376;8.742;2024-03-23T05:24:41;6.30;99.90
14349;DHT22;7258;50.376;8.742;2024-03-23T05:26:42;6.30;99.90
14349;DHT22;7258;50.376;8.742;2024-03-23T05:28:44;6.30;99.90
14349;DHT22;7258;50.376;8.742;2024-03-23T05:30:50;6.30;99.90
14349;DHT22;7258;50.376;8.742;2024-03-23T05:32:52;6.30;99.90
14349;DHT22;7258;50.376;8.742;2024-03-23T05:34:54;6.30;99.90
14349;DHT22;7258;50.376;8.742;2024-03-23T05:36:57;6.20;99.90
14349;DHT22;7258;50.376;8.742;2024-03-23T05:39:00;6.20;99.90
14349;DHT22;7258;50.376;8.742;2024-03-23T05:41:02;6.20;99.90
14349;DHT22;7258;50.376;8.742;2024-03-23T05:43:03;6.20;99.90
14349;DHT22;7258;50.376;8.742;2024-03-23T05:45:06;6.20;99.90
14349;DHT22;7258;50.376;8.742;2024-03-23T05:47:07;6.20;99.90
14349;DHT22;7258;50.376;8.742;2024-03-23T05:49:09;6.20;99.90
14349;DHT22;7258;50.376;8.742;2024-03-23T05:51:10;6.10;99.90
14349;DHT22;7258;50.376;8.742;2024-03-23T05:53:14;6.00;99.90
14349;DHT22;7258;50.376;8.742;2024-03-23T05:55:16;6.00;99.90
14349;DHT22;7258;50.376;8.742;2024-03-23T05:57:18;6.10;99.90
14349;DHT22;7258;50.376;8.742;2024-03-23T05:59:20;6.00;99.90
14349;DHT22;7258;50.376;8.742;2024-03-23T06:01:22;6.00;99.90
14349;DHT22;7258;50.376;8.742;2024-03-23T06:03:23;6.00;99.90
14349;DHT22;7258;50.376;8.742;2024-03-23T06:05:25;6.00;99.90
14349;DHT22;7258;50.376;8.742;2024-03-23T06:07:26;6.00;99.90
14349;DHT22;7258;50.376;8.742;2024-03-23T06:09:27;6.00;99.90
14349;DHT22;7258;50.376;8.742;2024-03-23T06:11:33;6.10;99.90
14349;DHT22;7258;50.376;8.742;2024-03-23T06:13:35;6.10;99.90
14349;DHT22;7258;50.376;8.742;2024-03-23T06:15:37;6.10;99.90
14349;DHT22;7258;50.376;8.742;2024-03-23T06:17:39;6.10;99.90
14349;DHT22;7258;50.376;8.742;2024-03-23T06:19:40;6.10;99.90
14349;DHT22;7258;50.376;8.742;2024-03-23T06:21:43;6.10;99.90
14349;DHT22;7258;50.376;8.742;2024-03-23T06:23:45;6.00;99.90
14349;DHT22;7258;50.376;8.742;2024-03-23T06:25:51;6.00;99.90
14349;DHT22;7258;50.376;8.742;2024-03-23T06:27:53;6.10;99.90
14349;DHT22;7258;50.376;8.742;2024-03-23T06:29:55;6.10;99.90
14349;DHT22;7258;50.376;8.742;2024-03-23T06:31:56;6.10;99.90
14349;DHT22;7258;50.376;8.742;2024-03-23T06:33:58;6.10;99.90
14349;DHT22;7258;50.376;8.742;2024-03-23T06:35:59;6.00;99.90
14349;DHT22;7258;50.376;8.742;2024-03-23T06:38:03;6.00;99.90
14349;DHT22;7258;50.376;8.742;2024-03-23T06:40:05;6.10;99.90
14349;DHT22;7258;50.376;8.742;2024-03-23T06:42:10;6.10;99.90
14349;DHT22;7258;50.376;8.742;2024-03-23T06:44:12;6.10;99.90
14349;DHT22;7258;50.376;8.742;2024-03-23T06:46:14;6.20;99.90
14349;DHT22;7258;50.376;8.742;2024-03-23T06:48:15;6.30;99.90
14349;DHT22;7258;50.376;8.742;2024-03-23T06:50:17;6.40;99.90
14349;DHT22;7258;50.376;8.742;2024-03-23T06:52:18;6.50;99.90
14349;DHT22;7258;50.376;8.742;2024-03-23T06:54:24;6.60;99.90
14349;DHT22;7258;50.376;8.742;2024-03-23T06:56:25;6.60;99.90
14349;DHT22;7258;50.376;8.742;2024-03-23T06:58:27;6.70;99.90
14349;DHT22;7258;50.376;8.742;2024-03-23T07:00:29;6.60;99.90
14349;DHT22;7258;50.376;8.742;2024-03-23T07:02:31;6.70;99.90
14349;DHT22;7258;50.376;8.742;2024-03-23T07:04:32;6.70;99.90
14349;DHT22;7258;50.376;8.742;2024-03-23T07:06:42;6.70;99.90
14349;DHT22;7258;50.376;8.742;2024-03-23T07:08:43;6.80;99.90
14349;DHT22;7258;50.376;8.742;2024-03-23T07:10:45;6.80;99.90
14349;DHT22;7258;50.376;8.742;2024-03-23T07:12:47;6.80;99.90
14349;DHT22;7258;50.376;8.742;2024-03-23T07:14:49;6.90;99.90
14349;DHT22;7258;50.376;8.742;2024-03-23T07:16:52;6.90;99.90
14349;DHT22;7258;50.376;8.742;2024-03-23T07:18:53;6.90;99.90
14349;DHT22;7258;50.376;8.742;2024-03-23T07:20:55;6.90;99.90
14349;DHT22;7258;50.376;8.742;2024-03-23T07:22:58;7.10;99.90
14349;DHT22;7258;50.376;8.742;2024-03-23T07:25:00;7.10;99.90
14349;DHT22;7258;50.376;8.742;2024-03-23T07:27:03;7.10;99.90
14349;DHT22;7258;50.376;8.742;2024-03-23T07:29:06;7.30;99.90
14349;DHT22;7258;50.376;8.742;2024-03-23T07:31:09;7.40;99.90
14349;DHT22;7258;50.376;8.742;2024-03-23T07:33:12;7.60;99.90
14349;DHT22;7258;50.376;8.742;2024-03-23T07:35:14;7.60;99.90
14349;DHT22;7258;50.376;8.742;2024-03-23T07:37:15;7.70;99.90
14349;DHT22;7258;50.376;8.742;2024-03-23T07:39:17;7.70;99.90
14349;DHT22;7258;50.376;8.742;2024-03-23T07:41:20;7.70;99.90
14349;DHT22;7258;50.376;8.742;2024-03-23T07:43:22;7.70;99.90
14349;DHT22;7258;50.376;8.742;2024-03-23T07:45:23;7.90;99.90
14349;DHT22;7258;50.376;8.742;2024-03-23T07:47:25;8.20;99.90
14349;DHT22;7258;50.376;8.742;2024-03-23T07:49:27;8.40;99.90
14349;DHT22;7258;50.376;8.742;2024-03-23T07:51:29;8.60;99.90
14349;DHT22;7258;50.376;8.742;2024-03-23T07:53:31;8.50;99.90
14349;DHT22;7258;50.376;8.742;2024-03-23T07:55:33;8.40;99.90
14349;DHT22;7258;50.376;8.742;2024-03-23T07:57:34;8.20;99.90
14349;DHT22;7258;50.376;8.742;2024-03-23T07:59:36;8.10;99.90
14349;DHT22;7258;50.376;8.742;2024-03-23T08:01:37;8.10;99.90
14349;DHT22;7258;50.376;8.742;2024-03-23T08:03:41;8.10;99.90
14349;DHT22;7258;50.376;8.742;2024-03-23T08:05:44;8.00;99.90
14349;DHT22;7258;50.376;8.742;2024-03-23T08:07:46;8.10;99.90
14349;DHT22;7258;50.376;8.742;2024-03-23T08:09:47;8.00;99.90
14349;DHT22;7258;50.376;8.742;2024-03-23T08:11:49;8.10;99.90
14349;DHT22;7258;50.376;8.742;2024-03-23T08:13:51;8.00;99.90
14349;DHT22;7258;50.376;8.742;2024-03-23T08:15:56;8.00;99.90
14349;DHT22;7258;50.376;8.742;2024-03-23T08:17:57;8.00;99.90
14349;DHT22;7258;50.376;8.742;2024-03-23T08:19:59;8.00;99.90
14349;DHT22;7258;50.376;8.742;2024-03-23T08:22:01;7.90;99.90
14349;DHT22;7258;50.376;8.742;2024-03-23T08:24:04;7.90;99.90
14349;DHT22;7258;50.376;8.742;2024-03-23T08:26:07;7.90;99.90
14349;DHT22;7258;50.376;8.742;2024-03-23T08:28:09;7.70;99.90
14349;DHT22;7258;50.376;8.742;2024-03-23T08:30:11;7.70;99.90
14349;DHT22;7258;50.376;8.742;2024-03-23T08:32:17;7.70;99.90
14349;DHT22;7258;50.376;8.742;2024-03-23T08:34:19;7.50;99.90
14349;DHT22;7258;50.376;8.742;2024-03-23T08:36:21;7.40;99.90
14349;DHT22;7258;50.376;8.742;2024-03-23T08:38:24;7.40;99.90
14349;DHT22;7258;50.376;8.742;2024-03-23T08:40:26;7.40;99.90
14349;DHT22;7258;50.376;8.742;2024-03-23T08:42:27;7.60;99.90
14349;DHT22;7258;50.376;8.742;2024-03-23T08:44:29;7.80;99.90
14349;DHT22;7258;50.376;8.742;2024-03-23T08:46:30;7.90;99.90
14349;DHT22;7258;50.376;8.742;2024-03-23T08:48:32;8.20;99.90
14349;DHT22;7258;50.376;8.742;2024-03-23T08:50:34;8.40;99.90
14349;DHT22;7258;50.376;8.742;2024-03-23T08:52:36;8.70;99.90
14349;DHT22;7258;50.376;8.742;2024-03-23T08:54:38;9.00;99.90
14349;DHT22;7258;50.376;8.742;2024-03-23T08:56:41;9.00;99.90
14349;DHT22;7258;50.376;8.742;2024-03-23T08:58:42;9.00;99.90
14349;DHT22;7258;50.376;8.742;2024-03-23T09:00:44;8.90;99.90
14349;DHT22;7258;50.376;8.742;2024-03-23T09:02:47;8.70;99.90
14349;DHT22;7258;50.376;8.742;2024-03-23T09:04:49;8.60;99.90
14349;DHT22;7258;50.376;8.742;2024-03-23T09:06:51;8.50;99.90
14349;DHT22;7258;50.376;8.742;2024-03-23T09:08:53;8.40;99.90
14349;DHT22;7258;50.376;8.742;2024-03-23T09:10:55;8.30;99.90
14349;DHT22;7258;50.376;8.742;2024-03-23T09:12:57;8.40;99.90
14349;DHT22;7258;50.376;8.742;2024-03-23T09:14:58;8.50;99.90
14349;DHT22;7258;50.376;8.742;2024-03-23T09:17:00;8.60;99.90
14349;DHT22;7258;50.376;8.742;2024-03-23T09:19:01;8.80;99.90
14349;DHT22;7258;50.376;8.742;2024-03-23T09:21:04;8.90;99.90
14349;DHT22;7258;50.376;8.742;2024-03-23T09:23:11;8.80;99.90
14349;DHT22;7258;50.376;8.742;2024-03-23T09:25:13;8.80;99.90
14349;DHT22;7258;50.376;8.742;2024-03-23T09:27:15;8.80;99.90
14349;DHT22;7258;50.376;8.742;2024-03-23T09:29:17;8.70;99.90
14349;DHT22;7258;50.376;8.742;2024-03-23T09:31:19;8.80;99.90
14349;DHT22;7258;50.376;8.742;2024-03-23T09:33:20;8.70;99.90
14349;DHT22;7258;50.376;8.742;2024-03-23T09:35:21;8.90;99.90
14349;DHT22;7258;50.376;8.742;2024-03-23T09:37:23;9.00;99.90
14349;DHT22;7258;50.376;8.742;2024-03-23T09:39:24;8.90;99.90
14349;DHT22;7258;50.376;8.742;2024-03-23T09:41:26;8.80;99.90
14349;DHT22;7258;50.376;8.742;2024-03-23T09:43:29;8.70;99.90
14349;DHT22;7258;50.376;8.742;2024-03-23T09:45:32;8.60;99.90
14349;DHT22;7258;50.376;8.742;2024-03-23T09:47:34;8.50;99.90
14349;DHT22;7258;50.376;8.742;2024-03-23T09:49:37;8.60;99.90
14349;DHT22;7258;50.376;8.742;2024-03-23T09:51:38;8.60;99.90
14349;DHT22;7258;50.376;8.742;2024-03-23T09:53:40;8.70;99.90
14349;DHT22;7258;50.376;8.742;2024-03-23T09:55:42;8.90;99.90
14349;DHT22;7258;50.376;8.742;2024-03-23T09:57:45;9.20;99.90
14349;DHT22;7258;50.376;8.742;2024-03-23T09:59:47;9.30;99.90
14349;DHT22;7258;50.376;8.742;2024-03-23T10:01:49;9.30;99.90
14349;DHT22;7258;50.376;8.742;2024-03-23T10:03:50;9.20;99.90
14349;DHT22;7258;50.376;8.742;2024-03-23T10:06:01;9.10;99.90
14349;DHT22;7258;50.376;8.742;2024-03-23T10:08:17;8.90;99.90
14349;DHT22;7258;50.376;8.742;2024-03-23T10:10:19;8.80;99.90
14349;DHT22;7258;50.376;8.742;2024-03-23T10:12:23;8.70;99.90
14349;DHT22;7258;50.376;8.742;2024-03-23T10:14:29;8.70;99.90
14349;DHT22;7258;50.376;8.742;2024-03-23T10:16:32;8.70;99.90
14349;DHT22;7258;50.376;8.742;2024-03-23T10:18:37;8.70;99.90
14349;DHT22;7258;50.376;8.742;2024-03-23T10:20:38;8.80;99.90
14349;DHT22;7258;50.376;8.742;2024-03-23T10:22:40;8.80;99.90
14349;DHT22;7258;50.376;8.742;2024-03-23T10:24:41;8.80;99.90
14349;DHT22;7258;50.376;8.742;2024-03-23T10:26:44;8.70;99.90
14349;DHT22;7258;50.376;8.742;2024-03-23T10:28:57;8.60;99.90
14349;DHT22;7258;50.376;8.742;2024-03-23T10:31:11;8.40;99.90
14349;DHT22;7258;50.376;8.742;2024-03-23T10:33:14;7.60;99.90
14349;DHT22;7258;50.376;8.742;2024-03-23T10:35:18;6.30;99.90
14349;DHT22;7258;50.376;8.742;2024-03-23T10:37:20;5.50;99.90
14349;DHT22;7258;50.376;8.742;2024-03-23T10:39:22;5.00;99.90
14349;DHT22;7258;50.376;8.742;2024-03-23T10:41:26;4.80;99.90
14349;DHT22;7258;50.376;8.742;2024-03-23T10:43:29;4.80;99.90
14349;DHT22;7258;50.376;8.742;2024-03-23T10:45:31;4.90;99.90
14349;DHT22;7258;50.376;8.742;2024-03-23T10:47:35;4.90;99.90
14349;DHT22;7258;50.376;8.742;2024-03-23T10:49:38;5.00;99.90
14349;DHT22;7258;50.376;8.742;2024-03-23T10:51:40;5.10;99.90
14349;DHT22;7258;50.376;8.742;2024-03-23T10:53:41;5.30;99.90
14349;DHT22;7258;50.376;8.742;2024-03-23T10:55:43;5.50;99.90
14349;DHT22;7258;50.376;8.742;2024-03-23T10:57:48;5.80;99.90
14349;DHT22;7258;50.376;8.742;2024-03-23T10:59:52;6.10;99.90
14349;DHT22;7258;50.376;8.742;2024-03-23T11:01:55;6.40;99.90
14349;DHT22;7258;50.376;8.742;2024-03-23T11:03:57;6.60;99.90
14349;DHT22;7258;50.376;8.742;2024-03-23T11:06:00;6.60;99.90
14349;DHT22;7258;50.376;8.742;2024-03-23T11:08:04;6.50;99.90
14349;DHT22;7258;50.376;8.742;2024-03-23T11:10:24;6.40;99.90
14349;DHT22;7258;50.376;8.742;2024-03-23T11:12:28;6.20;99.90
14349;DHT22;7258;50.376;8.742;2024-03-23T11:14:32;6.20;99.90
14349;DHT22;7258;50.376;8.742;2024-03-23T11:16:33;6.00;99.90
14349;DHT22;7258;50.376;8.742;2024-03-23T11:18:36;6.00;99.90
14349;DHT22;7258;50.376;8.742;2024-03-23T11:20:38;5.90;99.90
14349;DHT22;7258;50.376;8.742;2024-03-23T11:22:45;5.90;99.90
14349;DHT22;7258;50.376;8.742;2024-03-23T11:24:50;5.90;99.90
14349;DHT22;7258;50.376;8.742;2024-03-23T11:26:51;6.10;99.90
14349;DHT22;7258;50.376;8.742;2024-03-23T11:29:08;6.30;99.90
14349;DHT22;7258;50.376;8.742;2024-03-23T11:31:10;6.70;99.90
14349;DHT22;7258;50.376;8.742;2024-03-23T11:33:12;7.00;99.90
14349;DHT22;7258;50.376;8.742;2024-03-23T11:35:30;7.20;99.90
14349;DHT22;7258;50.376;8.742;2024-03-23T11:37:33;7.40;99.90
14349;DHT22;7258;50.376;8.742;2024-03-23T11:39:36;7.60;99.90
14349;DHT22;7258;50.376;8.742;2024-03-23T11:41:45;7.70;99.90
14349;DHT22;7258;50.376;8.742;2024-03-23T11:43:47;7.70;99.90
14349;DHT22;7258;50.376;8.742;2024-03-23T11:45:50;7.80;99.90
14349;DHT22;7258;50.376;8.742;2024-03-23T11:48:06;7.90;99.90
14349;DHT22;7258;50.376;8.742;2024-03-23T11:50:08;8.20;99.90
14349;DHT22;7258;50.376;8.742;2024-03-23T11:52:09;8.60;99.90
14349;DHT22;7258;50.376;8.742;2024-03-23T11:54:11;8.90;99.90
14349;DHT22;7258;50.376;8.742;2024-03-23T11:56:14;9.10;99.90
14349;DHT22;7258;50.376;8.742;2024-03-23T11:58:16;9.20;99.90
14349;DHT22;7258;50.376;8.742;2024-03-23T12:00:22;9.20;99.90
14349;DHT22;7258;50.376;8.742;2024-03-23T12:02:24;9.20;99.90
14349;DHT22;7258;50.376;8.742;2024-03-23T12:04:26;9.30;99.90
14349;DHT22;7258;50.376;8.742;2024-03-23T12:06:29;9.30;99.90
14349;DHT22;7258;50.376;8.742;2024-03-23T12:08:31;9.20;99.90
14349;DHT22;7258;50.376;8.742;2024-03-23T12:10:33;9.20;99.90
14349;DHT22;7258;50.376;8.742;2024-03-23T12:12:35;9.20;99.90
14349;DHT22;7258;50.376;8.742;2024-03-23T12:14:36;9.30;99.90
14349;DHT22;7258;50.376;8.742;2024-03-23T12:16:38;9.30;99.90
14349;DHT22;7258;50.376;8.742;2024-03-23T12:18:40;9.40;99.90
14349;DHT22;7258;50.376;8.742;2024-03-23T12:20:43;9.50;99.90
14349;DHT22;7258;50.376;8.742;2024-03-23T12:22:44;9.70;99.90
14349;DHT22;7258;50.376;8.742;2024-03-23T12:24:47;9.60;99.90
14349;DHT22;7258;50.376;8.742;2024-03-23T12:26:48;9.30;99.90
14349;DHT22;7258;50.376;8.742;2024-03-23T12:28:52;9.00;99.90
14349;DHT22;7258;50.376;8.742;2024-03-23T12:30:53;8.70;99.90
14349;DHT22;7258;50.376;8.742;2024-03-23T12:32:55;8.50;99.90
14349;DHT22;7258;50.376;8.742;2024-03-23T12:34:57;8.40;99.90
14349;DHT22;7258;50.376;8.742;2024-03-23T12:36:59;8.30;99.90
14349;DHT22;7258;50.376;8.742;2024-03-23T12:39:00;8.30;99.90
14349;DHT22;7258;50.376;8.742;2024-03-23T12:41:03;8.20;99.90
14349;DHT22;7258;50.376;8.742;2024-03-23T12:43:05;8.20;99.90
14349;DHT22;7258;50.376;8.742;2024-03-23T12:45:09;8.20;99.90
14349;DHT22;7258;50.376;8.742;2024-03-23T12:47:10;8.10;99.90
14349;DHT22;7258;50.376;8.742;2024-03-23T12:49:13;7.70;99.90
14349;DHT22;7258;50.376;8.742;2024-03-23T12:51:14;7.40;99.90
14349;DHT22;7258;50.376;8.742;2024-03-23T12:53:16;7.10;99.90
14349;DHT22;7258;50.376;8.742;2024-03-23T12:55:17;6.80;99.90
14349;DHT22;7258;50.376;8.742;2024-03-23T12:57:21;6.30;99.90
14349;DHT22;7258;50.376;8.742;2024-03-23T12:59:22;5.70;99.90
14349;DHT22;7258;50.376;8.742;2024-03-23T13:01:26;5.10;99.90
14349;DHT22;7258;50.376;8.742;2024-03-23T13:03:27;4.80;99.90
14349;DHT22;7258;50.376;8.742;2024-03-23T13:05:29;4.70;99.90
14349;DHT22;7258;50.376;8.742;2024-03-23T13:07:30;4.70;99.90
14349;DHT22;7258;50.376;8.742;2024-03-23T13:09:32;4.80;99.90
14349;DHT22;7258;50.376;8.742;2024-03-23T13:11:33;4.80;99.90
14349;DHT22;7258;50.376;8.742;2024-03-23T13:13:35;4.90;99.90
14349;DHT22;7258;50.376;8.742;2024-03-23T13:15:36;4.90;99.90
14349;DHT22;7258;50.376;8.742;2024-03-23T13:17:39;4.90;99.90
14349;DHT22;7258;50.376;8.742;2024-03-23T13:19:42;4.80;99.90
14349;DHT22;7258;50.376;8.742;2024-03-23T13:21:44;4.80;99.90
14349;DHT22;7258;50.376;8.742;2024-03-23T13:23:47;4.90;99.90
14349;DHT22;7258;50.376;8.742;2024-03-23T13:25:50;4.90;99.90
14349;DHT22;7258;50.376;8.742;2024-03-23T13:27:53;4.90;99.90
14349;DHT22;7258;50.376;8.742;2024-03-23T13:29:55;4.90;99.90
14349;DHT22;7258;50.376;8.742;2024-03-23T13:31:56;4.90;99.90
14349;DHT22;7258;50.376;8.742;2024-03-23T13:33:59;4.80;99.90
14349;DHT22;7258;50.376;8.742;2024-03-23T13:36:03;4.80;99.90
14349;DHT22;7258;50.376;8.742;2024-03-23T13:38:05;4.80;99.90
14349;DHT22;7258;50.376;8.742;2024-03-23T13:40:08;4.70;99.90
14349;DHT22;7258;50.376;8.742;2024-03-23T13:42:10;4.70;99.90
14349;DHT22;7258;50.376;8.742;2024-03-23T13:44:14;4.80;99.90
14349;DHT22;7258;50.376;8.742;2024-03-23T13:46:15;4.80;99.90
14349;DHT22;7258;50.376;8.742;2024-03-23T13:48:17;4.80;99.90
14349;DHT22;7258;50.376;8.742;2024-03-23T13:50:23;5.00;99.90
14349;DHT22;7258;50.376;8.742;2024-03-23T13:52:26;5.40;99.90
14349;DHT22;7258;50.376;8.742;2024-03-23T13:54:28;5.80;99.90
14349;DHT22;7258;50.376;8.742;2024-03-23T13:56:30;6.20;99.90
14349;DHT22;7258;50.376;8.742;2024-03-23T13:58:31;6.30;99.90
14349;DHT22;7258;50.376;8.742;2024-03-23T14:00:35;6.40;99.90
14349;DHT22;7258;50.376;8.742;2024-03-23T14:02:38;6.20;99.90
14349;DHT22;7258;50.376;8.742;2024-03-23T14:04:39;6.00;99.90
14349;DHT22;7258;50.376;8.742;2024-03-23T14:06:43;6.00;99.90
14349;DHT22;7258;50.376;8.742;2024-03-23T14:08:46;6.00;99.90
14349;DHT22;7258;50.376;8.742;2024-03-23T14:10:48;6.10;99.90
14349;DHT22;7258;50.376;8.742;2024-03-23T14:12:49;6.10;99.90